Time;durP1;ratioP1;P1;durP2;ratioP2;P2;SDS_P1;SDS_P2;PMS_P1;PMS_P2;Temp;Humidity;BMP_temperature;BMP_pressure;BME280_temperature;BME280_humidity;BME280_pressure;Samples;Min_cycle;Max_cycle;Signal;HPM_P1;HPM_P2
2021/07/18 00:01:56;;;;;;;;;;;;;;;17.74;nan;100187.78;5014176;28;19925;-80
2021/07/18 00:04:24;;;;;;;;;;;;;;;17.57;nan;100179.75;4996617;28;20259;-80
2021/07/18 00:06:51;;;;;;;;;;;;;;;17.59;nan;100180.91;4996641;28;20380;-80
2021/07/18 00:09:19;;;;;;;;;;;;;;;17.54;nan;100189.13;4996682;28;19926;-80
2021/07/18 00:11:46;;;;;;;;;;;;;;;17.38;nan;100183.47;4996389;28;20389;-80
2021/07/18 00:14:13;;;;;;;;;;;;;;;17.46;nan;100182.84;5014208;28;19926;-80
2021/07/18 00:16:41;;;;;;;;;;;;;;;17.21;nan;100177.03;5013485;28;20380;-80
2021/07/18 00:19:08;;;;;;;;;;;;;;;17.49;nan;100175.53;4980654;28;20361;-80
2021/07/18 00:21:36;;;;;;;;;;;;;;;17.45;nan;100172.00;5013911;28;19925;-80
2021/07/18 00:24:05;;;;;;;;;;;;;;;17.56;nan;100169.69;5013264;28;20448;-80
2021/07/18 00:26:32;;;;;;;;;;;;;;;17.55;nan;100165.28;4996022;28;19925;-80
2021/07/18 00:29:02;;;;;;;;;;;;;;;17.36;nan;100166.16;4996399;28;19926;-80
2021/07/18 00:31:30;;;;;;;;;;;;;;;17.30;nan;100162.28;5013624;28;19929;-80
2021/07/18 00:34:03;;;;;;;;;;;;;;;17.43;nan;100174.47;5013660;28;19930;-80
2021/07/18 00:36:30;;;;;;;;;;;;;;;17.41;nan;100168.47;5013664;28;19936;-80
2021/07/18 00:38:57;;;;;;;;;;;;;;;17.06;nan;100175.00;5013679;28;19967;-80
2021/07/18 00:41:24;;;;;;;;;;;;;;;17.03;nan;100175.88;4980089;28;19925;-80
2021/07/18 00:43:52;;;;;;;;;;;;;;;17.04;nan;100163.38;5013535;28;19929;-80
2021/07/18 00:46:19;;;;;;;;;;;;;;;16.96;nan;100170.41;4995952;28;19926;-80
2021/07/18 00:48:47;;;;;;;;;;;;;;;17.10;nan;100168.03;5013707;28;19925;-80
2021/07/18 00:51:15;;;;;;;;;;;;;;;16.56;nan;100166.13;4995987;28;19933;-80
2021/07/18 00:53:42;;;;;;;;;;;;;;;16.78;nan;100170.03;4996026;28;19929;-80
2021/07/18 00:56:10;;;;;;;;;;;;;;;16.83;nan;100161.03;5013405;28;19933;-80
2021/07/18 00:58:37;;;;;;;;;;;;;;;16.91;nan;100159.66;4996043;28;19942;-80
2021/07/18 01:01:05;;;;;;;;;;;;;;;16.66;nan;100162.28;4995885;28;19948;-80
2021/07/18 01:03:32;;;;;;;;;;;;;;;16.49;nan;100157.81;4996124;28;19925;-80
2021/07/18 01:05:59;;;;;;;;;;;;;;;16.66;nan;100156.63;5013315;28;19925;-80
2021/07/18 01:08:26;;;;;;;;;;;;;;;16.34;nan;100156.53;5013398;28;20500;-80
2021/07/18 01:10:54;;;;;;;;;;;;;;;16.54;nan;100160.91;5013378;28;19929;-80
2021/07/18 01:13:21;;;;;;;;;;;;;;;16.42;nan;100157.97;4995915;28;20361;-80
2021/07/18 01:15:49;;;;;;;;;;;;;;;16.55;nan;100156.88;5013443;28;19929;-80
2021/07/18 01:18:16;;;;;;;;;;;;;;;16.71;nan;100164.56;5013055;28;19933;-80
2021/07/18 01:20:44;;;;;;;;;;;;;;;15.84;nan;100156.78;5013186;28;19932;-80
2021/07/18 01:23:11;;;;;;;;;;;;;;;16.30;nan;100164.28;4995660;28;19935;-80
2021/07/18 01:25:38;;;;;;;;;;;;;;;16.49;nan;100152.19;5013522;28;19940;-80
2021/07/18 01:28:10;;;;;;;;;;;;;;;16.53;nan;100158.53;5013261;28;19925;-81
2021/07/18 01:30:38;;;;;;;;;;;;;;;16.35;nan;100152.47;4996028;28;19936;-80
2021/07/18 01:33:05;;;;;;;;;;;;;;;15.76;nan;100150.47;4980605;28;19925;-80
2021/07/18 01:35:33;;;;;;;;;;;;;;;16.10;nan;100148.16;4999248;28;20401;-80
2021/07/18 01:38:01;;;;;;;;;;;;;;;16.24;nan;100150.69;5016728;28;19926;-80
2021/07/18 01:40:29;;;;;;;;;;;;;;;15.87;nan;100147.44;5016678;28;19925;-80
2021/07/18 01:42:56;;;;;;;;;;;;;;;15.56;nan;100158.09;4999114;28;19925;-80
2021/07/18 01:45:24;;;;;;;;;;;;;;;15.87;nan;100155.91;5016744;28;19925;-80
2021/07/18 01:47:51;;;;;;;;;;;;;;;15.69;nan;100150.59;4998872;28;19929;-80
2021/07/18 01:50:19;;;;;;;;;;;;;;;16.06;nan;100147.44;4998893;28;19932;-80
2021/07/18 01:52:46;;;;;;;;;;;;;;;15.91;nan;100143.34;5016257;28;19944;-80
2021/07/18 01:55:16;;;;;;;;;;;;;;;16.17;nan;100145.19;5016370;28;19926;-80
2021/07/18 01:57:44;;;;;;;;;;;;;;;15.99;nan;100152.44;5016235;28;19930;-80
2021/07/18 02:00:12;;;;;;;;;;;;;;;15.99;nan;100153.22;5016504;28;19926;-80
2021/07/18 02:02:51;;;;;;;;;;;;;;;16.15;nan;100142.00;4998780;28;19955;-80
2021/07/18 02:05:19;;;;;;;;;;;;;;;16.13;nan;100152.91;5016184;28;19932;-80
2021/07/18 02:07:47;;;;;;;;;;;;;;;16.16;nan;100135.13;5016076;28;19929;-80
2021/07/18 02:10:16;;;;;;;;;;;;;;;16.15;nan;100139.19;4998908;28;20246;-80
2021/07/18 02:12:44;;;;;;;;;;;;;;;15.86;nan;100135.38;4998831;28;19925;-80
2021/07/18 02:15:14;;;;;;;;;;;;;;;15.75;nan;100137.59;4982454;28;19925;-80
2021/07/18 02:17:41;;;;;;;;;;;;;;;15.79;nan;100138.34;4998549;28;20017;-80
2021/07/18 02:20:13;;;;;;;;;;;;;;;15.30;nan;100132.81;4998212;28;19926;-80
2021/07/18 02:22:42;;;;;;;;;;;;;;;15.31;nan;100137.22;4982672;28;19925;-80
2021/07/18 02:25:09;;;;;;;;;;;;;;;15.66;nan;100134.56;4998344;28;19932;-80
2021/07/18 02:27:37;;;;;;;;;;;;;;;15.48;nan;100134.09;5015926;28;20298;-80
2021/07/18 02:30:09;;;;;;;;;;;;;;;15.54;nan;100121.13;4997500;28;19936;-80
2021/07/18 02:32:37;;;;;;;;;;;;;;;15.58;nan;100133.13;4997627;28;19992;-80
2021/07/18 02:35:05;;;;;;;;;;;;;;;15.52;nan;100123.59;5014886;28;19932;-81
2021/07/18 02:37:33;;;;;;;;;;;;;;;15.59;nan;100126.25;4997743;28;19932;-81
2021/07/18 02:40:01;;;;;;;;;;;;;;;15.67;nan;100115.66;5015490;28;19925;-81
2021/07/18 02:42:28;;;;;;;;;;;;;;;15.65;nan;100109.63;4997595;28;19929;-81
2021/07/18 02:44:56;;;;;;;;;;;;;;;15.69;nan;100116.78;4996611;28;19926;-81
2021/07/18 02:47:23;;;;;;;;;;;;;;;15.09;nan;100114.28;4981419;28;19926;-81
2021/07/18 02:50:16;;;;;;;;;;;;;;;15.30;nan;100116.72;4998145;28;19933;-81
2021/07/18 02:52:43;;;;;;;;;;;;;;;15.07;nan;100116.72;4981734;28;20424;-81
2021/07/18 02:55:11;;;;;;;;;;;;;;;15.41;nan;100123.00;4981812;28;19955;-80
2021/07/18 02:57:38;;;;;;;;;;;;;;;15.49;nan;100116.00;5015112;28;20274;-80
2021/07/18 03:00:16;;;;;;;;;;;;;;;15.40;nan;100114.97;5015416;28;19925;-80
2021/07/18 03:02:44;;;;;;;;;;;;;;;15.45;nan;100112.44;4997579;28;20434;-80
2021/07/18 03:05:12;;;;;;;;;;;;;;;15.14;nan;100116.63;5015284;28;19929;-80
2021/07/18 03:07:39;;;;;;;;;;;;;;;15.44;nan;100116.50;5015166;28;20377;-81
2021/07/18 03:10:08;;;;;;;;;;;;;;;15.52;nan;100112.31;5014966;28;19971;-80
2021/07/18 03:12:35;;;;;;;;;;;;;;;15.58;nan;100110.59;4981425;28;19931;-80
2021/07/18 03:15:04;;;;;;;;;;;;;;;15.49;nan;100109.56;5014941;28;19929;-80
2021/07/18 03:17:33;;;;;;;;;;;;;;;15.12;nan;100116.25;4997781;28;20008;-80
2021/07/18 03:20:02;;;;;;;;;;;;;;;15.41;nan;100110.91;5014807;28;19925;-80
2021/07/18 03:22:32;;;;;;;;;;;;;;;15.48;nan;100111.56;5014899;28;19925;-80
2021/07/18 03:24:59;;;;;;;;;;;;;;;15.42;nan;100106.91;5014916;28;19926;-80
2021/07/18 03:27:27;;;;;;;;;;;;;;;15.38;nan;100101.31;4996007;28;19951;-81
2021/07/18 03:29:54;;;;;;;;;;;;;;;15.31;nan;100111.91;5014817;28;19926;-80
2021/07/18 03:32:21;;;;;;;;;;;;;;;15.29;nan;100105.88;5014671;28;19933;-80
2021/07/18 03:34:48;;;;;;;;;;;;;;;15.31;nan;100101.41;4997141;28;19925;-80
2021/07/18 03:37:15;;;;;;;;;;;;;;;15.30;nan;100099.81;5014393;28;19979;-80
2021/07/18 03:39:43;;;;;;;;;;;;;;;15.20;nan;100095.19;4997320;28;19930;-80
2021/07/18 03:42:10;;;;;;;;;;;;;;;15.30;nan;100104.66;4997062;28;19926;-80
2021/07/18 03:44:39;;;;;;;;;;;;;;;15.26;nan;100099.09;4990489;28;19925;-80
2021/07/18 03:47:06;;;;;;;;;;;;;;;15.25;nan;100102.34;5004857;28;19926;-80
2021/07/18 03:49:34;;;;;;;;;;;;;;;15.20;nan;100106.47;4981125;28;19929;-80
2021/07/18 03:52:03;;;;;;;;;;;;;;;15.07;nan;100099.84;4997364;28;19926;-80
2021/07/18 03:54:30;;;;;;;;;;;;;;;14.59;nan;100099.44;4997229;28;19925;-80
2021/07/18 03:56:57;;;;;;;;;;;;;;;14.41;nan;100101.75;4996921;28;19925;-80
2021/07/18 03:59:24;;;;;;;;;;;;;;;14.28;nan;100109.19;5014117;28;19932;-80
2021/07/18 04:01:51;;;;;;;;;;;;;;;14.58;nan;100109.13;5014215;28;19940;-80
2021/07/18 04:04:19;;;;;;;;;;;;;;;14.83;nan;100115.13;4996894;28;19925;-80
2021/07/18 04:06:46;;;;;;;;;;;;;;;14.72;nan;100108.91;5014357;28;19932;-80
2021/07/18 04:09:14;;;;;;;;;;;;;;;14.95;nan;100114.53;5013756;28;19979;-80
2021/07/18 04:11:42;;;;;;;;;;;;;;;15.01;nan;100112.03;4996989;28;19930;-80
2021/07/18 04:14:09;;;;;;;;;;;;;;;15.07;nan;100108.28;5014024;28;19925;-80
2021/07/18 04:16:36;;;;;;;;;;;;;;;15.18;nan;100108.09;5013845;28;19955;-80
2021/07/18 04:19:03;;;;;;;;;;;;;;;15.18;nan;100116.53;4980047;28;19929;-80
2021/07/18 04:21:31;;;;;;;;;;;;;;;14.85;nan;100097.81;4996820;28;20545;-80
2021/07/18 04:23:58;;;;;;;;;;;;;;;14.72;nan;100105.28;4996617;28;19932;-80
2021/07/18 04:26:25;;;;;;;;;;;;;;;14.88;nan;100106.22;4996513;28;19975;-80
2021/07/18 04:28:52;;;;;;;;;;;;;;;14.80;nan;100101.91;5013825;28;19979;-80
2021/07/18 04:31:20;;;;;;;;;;;;;;;14.70;nan;100105.72;5014025;28;19925;-80
2021/07/18 04:33:49;;;;;;;;;;;;;;;14.38;nan;100105.41;4996400;28;19926;-80
2021/07/18 04:36:18;;;;;;;;;;;;;;;14.00;nan;100115.16;4980629;28;19982;-80
2021/07/18 04:38:47;;;;;;;;;;;;;;;14.19;nan;100115.28;5013751;28;20441;-80
2021/07/18 04:41:14;;;;;;;;;;;;;;;14.48;nan;100117.72;5014139;28;19932;-80
2021/07/18 04:43:42;;;;;;;;;;;;;;;14.64;nan;100115.84;4996072;28;19929;-80
2021/07/18 04:46:09;;;;;;;;;;;;;;;14.80;nan;100118.81;4996388;28;19929;-80
2021/07/18 04:48:36;;;;;;;;;;;;;;;14.62;nan;100125.94;4996210;28;19929;-80
2021/07/18 04:51:03;;;;;;;;;;;;;;;14.61;nan;100125.16;5013751;28;19979;-80
2021/07/18 04:53:30;;;;;;;;;;;;;;;14.97;nan;100119.72;5013814;28;19926;-80
2021/07/18 04:55:58;;;;;;;;;;;;;;;15.11;nan;100116.69;5013803;28;19933;-80
2021/07/18 04:58:25;;;;;;;;;;;;;;;15.11;nan;100117.47;5013544;28;19984;-80
2021/07/18 05:00:53;;;;;;;;;;;;;;;15.24;nan;100117.63;4996272;28;19979;-79
2021/07/18 05:03:20;;;;;;;;;;;;;;;14.96;nan;100106.88;4996254;28;19932;-80
2021/07/18 05:05:49;;;;;;;;;;;;;;;14.79;nan;100114.41;5013540;28;19929;-80
2021/07/18 05:08:17;;;;;;;;;;;;;;;14.83;nan;100120.75;4981278;28;19925;-80
2021/07/18 05:10:44;;;;;;;;;;;;;;;14.92;nan;100114.59;5017466;28;19948;-80
2021/07/18 05:13:11;;;;;;;;;;;;;;;15.21;nan;100113.66;4999947;28;19925;-81
2021/07/18 05:15:39;;;;;;;;;;;;;;;15.47;nan;100129.72;4983785;28;20423;-80
2021/07/18 05:18:15;;;;;;;;;;;;;;;15.21;nan;100122.13;5017224;28;19925;-80
2021/07/18 05:20:43;;;;;;;;;;;;;;;15.36;nan;100115.00;5017239;28;19929;-80
2021/07/18 05:23:11;;;;;;;;;;;;;;;15.74;nan;100118.31;5017396;28;19930;-83
2021/07/18 05:25:38;;;;;;;;;;;;;;;15.93;nan;100109.84;5017386;28;19926;-81
2021/07/18 05:28:05;;;;;;;;;;;;;;;16.08;nan;100116.78;4999791;28;20365;-80
2021/07/18 05:30:33;;;;;;;;;;;;;;;16.16;nan;100111.81;5016646;28;19929;-77
2021/07/18 05:33:00;;;;;;;;;;;;;;;16.03;nan;100103.22;4999635;28;20320;-81
2021/07/18 05:35:27;;;;;;;;;;;;;;;15.61;nan;100115.38;4995764;28;19925;-80
2021/07/18 05:37:54;;;;;;;;;;;;;;;16.03;nan;100102.41;5012793;28;19926;-80
2021/07/18 05:40:22;;;;;;;;;;;;;;;16.33;nan;100110.59;5014011;28;19930;-81
2021/07/18 05:42:49;;;;;;;;;;;;;;;16.47;nan;100103.84;5016607;28;19979;-81
2021/07/18 05:45:16;;;;;;;;;;;;;;;16.40;nan;100109.63;4999195;28;19925;-81
2021/07/18 05:47:43;;;;;;;;;;;;;;;16.06;nan;100107.97;4999180;28;19929;-81
2021/07/18 05:50:14;;;;;;;;;;;;;;;16.78;nan;100124.88;4995904;28;19925;-81
2021/07/18 05:52:41;;;;;;;;;;;;;;;17.22;nan;100118.53;5016185;28;19986;-81
2021/07/18 05:55:10;;;;;;;;;;;;;;;18.20;nan;100124.25;4997415;28;19933;-81
2021/07/18 05:57:37;;;;;;;;;;;;;;;18.71;nan;100108.09;4995928;28;19932;-81
2021/07/18 06:00:06;;;;;;;;;;;;;;;18.19;nan;100104.88;5013541;28;19926;-81
2021/07/18 06:02:36;;;;;;;;;;;;;;;18.41;nan;100106.63;4996191;28;19963;-81
2021/07/18 06:05:03;;;;;;;;;;;;;;;18.44;nan;100102.91;5015796;28;20558;-81
2021/07/18 06:07:30;;;;;;;;;;;;;;;18.56;nan;100118.28;5013971;28;19925;-81
2021/07/18 06:09:58;;;;;;;;;;;;;;;17.83;nan;100105.13;5013073;28;20300;-81
2021/07/18 06:12:25;;;;;;;;;;;;;;;18.16;nan;100117.88;5012966;28;19926;-81
2021/07/18 06:14:52;;;;;;;;;;;;;;;17.90;nan;100116.25;4980285;28;19926;-81
2021/07/18 06:17:19;;;;;;;;;;;;;;;18.24;nan;100118.47;4985229;28;19936;-81
2021/07/18 06:19:47;;;;;;;;;;;;;;;18.29;nan;100115.88;4987593;28;20280;-81
2021/07/18 06:22:14;;;;;;;;;;;;;;;18.45;nan;100117.84;5008639;28;19926;-81
2021/07/18 06:24:41;;;;;;;;;;;;;;;18.62;nan;100120.13;4997857;28;20277;-81
2021/07/18 06:27:08;;;;;;;;;;;;;;;18.53;nan;100119.19;4996188;28;19926;-81
2021/07/18 06:29:36;;;;;;;;;;;;;;;18.52;nan;100123.28;4993918;28;20308;-81
2021/07/18 06:32:04;;;;;;;;;;;;;;;18.78;nan;100114.31;4979860;28;19930;-80
2021/07/18 06:34:31;;;;;;;;;;;;;;;18.90;nan;100122.00;4995379;28;19925;-81
2021/07/18 06:37:00;;;;;;;;;;;;;;;19.11;nan;100121.34;4996890;28;19971;-81
2021/07/18 06:39:27;;;;;;;;;;;;;;;19.25;nan;100120.81;5015056;28;19941;-81
2021/07/18 06:41:55;;;;;;;;;;;;;;;19.33;nan;100127.88;5009982;28;19926;-81
2021/07/18 06:44:22;;;;;;;;;;;;;;;19.37;nan;100114.38;5015216;28;19925;-81
2021/07/18 06:46:49;;;;;;;;;;;;;;;19.62;nan;100133.31;4997719;28;19933;-82
2021/07/18 06:49:16;;;;;;;;;;;;;;;19.82;nan;100127.34;5015127;28;19979;-80
2021/07/18 06:51:43;;;;;;;;;;;;;;;19.76;nan;100129.19;4994708;28;19930;-81
2021/07/18 06:54:11;;;;;;;;;;;;;;;20.29;nan;100125.97;4990671;28;20277;-82
2021/07/18 06:56:38;;;;;;;;;;;;;;;20.90;nan;100119.47;5010036;28;19926;-81
2021/07/18 06:59:06;;;;;;;;;;;;;;;21.88;nan;100120.94;5014842;28;19979;-82
2021/07/18 07:01:33;;;;;;;;;;;;;;;23.45;nan;100105.94;4997707;28;19925;-82
2021/07/18 07:04:00;;;;;;;;;;;;;;;24.61;nan;100094.66;4994569;28;19925;-82
2021/07/18 07:06:27;;;;;;;;;;;;;;;26.74;nan;100089.78;5015242;28;19926;-81
2021/07/18 07:08:54;;;;;;;;;;;;;;;27.97;nan;100077.16;4997559;28;20376;-82
2021/07/18 07:11:22;;;;;;;;;;;;;;;28.84;nan;100069.09;5015219;28;19986;-83
2021/07/18 07:13:50;;;;;;;;;;;;;;;29.44;nan;100064.53;5014679;28;20428;-83
2021/07/18 07:16:18;;;;;;;;;;;;;;;30.54;nan;100057.31;4981456;28;19926;-83
2021/07/18 07:18:45;;;;;;;;;;;;;;;31.32;nan;100058.19;5014817;28;19933;-83
2021/07/18 07:21:13;;;;;;;;;;;;;;;32.08;nan;100054.81;4992938;28;19926;-83
2021/07/18 07:23:41;;;;;;;;;;;;;;;33.01;nan;100055.38;5014684;28;19926;-83
2021/07/18 07:26:08;;;;;;;;;;;;;;;33.58;nan;100059.53;5004173;28;19929;-79
2021/07/18 07:28:36;;;;;;;;;;;;;;;34.04;nan;100055.88;5006971;28;19933;-80
2021/07/18 07:31:04;;;;;;;;;;;;;;;32.60;nan;100050.03;5009592;28;19936;-78
2021/07/18 07:33:33;;;;;;;;;;;;;;;33.12;nan;100045.69;5009788;28;20392;-78
2021/07/18 07:36:01;;;;;;;;;;;;;;;34.02;nan;100041.16;4992727;28;19932;-77
2021/07/18 07:38:28;;;;;;;;;;;;;;;34.28;nan;100038.16;5010584;28;19932;-78
2021/07/18 07:40:56;;;;;;;;;;;;;;;34.28;nan;100032.34;4992343;28;20265;-78
2021/07/18 07:43:24;;;;;;;;;;;;;;;34.97;nan;100040.38;4984078;28;19979;-78
2021/07/18 07:45:51;;;;;;;;;;;;;;;35.70;nan;100035.59;5009779;28;20598;-80
2021/07/18 07:48:19;;;;;;;;;;;;;;;35.76;nan;100033.28;5010111;28;20384;-77
2021/07/18 07:50:46;;;;;;;;;;;;;;;35.74;nan;100035.25;4992947;28;19932;-77
2021/07/18 07:53:13;;;;;;;;;;;;;;;36.05;nan;100031.88;5010419;28;19926;-77
2021/07/18 07:55:40;;;;;;;;;;;;;;;34.37;nan;100043.47;5009994;28;19929;-79
2021/07/18 07:58:08;;;;;;;;;;;;;;;34.43;nan;100036.22;5010427;28;20357;-79
2021/07/18 08:00:36;;;;;;;;;;;;;;;34.98;nan;100042.72;5009645;28;19944;-79
2021/07/18 08:03:04;;;;;;;;;;;;;;;34.96;nan;100039.59;5008789;28;19934;-81
2021/07/18 08:05:31;;;;;;;;;;;;;;;36.06;nan;100042.19;5008811;28;19925;-78
2021/07/18 08:07:58;;;;;;;;;;;;;;;36.44;nan;100030.66;5009692;28;19932;-78
2021/07/18 08:10:26;;;;;;;;;;;;;;;36.99;nan;100033.78;5009266;28;19944;-78
2021/07/18 08:12:53;;;;;;;;;;;;;;;36.96;nan;100034.94;5008543;28;20384;-79
2021/07/18 08:15:22;;;;;;;;;;;;;;;37.17;nan;100035.50;5010021;28;19929;-78
2021/07/18 08:17:50;;;;;;;;;;;;;;;37.38;nan;100041.91;5008812;28;19934;-78
2021/07/18 08:20:18;;;;;;;;;;;;;;;37.47;nan;100042.06;4991430;28;19926;-78
2021/07/18 08:22:47;;;;;;;;;;;;;;;37.31;nan;100031.00;5009804;28;19929;-77
2021/07/18 08:25:16;;;;;;;;;;;;;;;35.64;nan;100034.22;5009037;28;19925;-78
2021/07/18 08:27:43;;;;;;;;;;;;;;;36.68;nan;100029.28;5007121;28;19933;-78
2021/07/18 08:30:11;;;;;;;;;;;;;;;37.21;nan;100027.16;4976045;28;19925;-78
2021/07/18 08:32:38;;;;;;;;;;;;;;;37.37;nan;100008.25;5008231;28;19937;-78
2021/07/18 08:35:07;;;;;;;;;;;;;;;37.16;nan;100011.41;5007582;28;19925;-77
2021/07/18 08:37:36;;;;;;;;;;;;;;;36.78;nan;100009.91;5008493;28;19933;-79
2021/07/18 08:40:04;;;;;;;;;;;;;;;36.90;nan;100014.75;5008267;28;19933;-78
2021/07/18 08:42:33;;;;;;;;;;;;;;;36.60;nan;100008.91;4990659;28;19940;-78
2021/07/18 08:45:01;;;;;;;;;;;;;;;35.57;nan;100006.69;5010338;28;19925;-78
2021/07/18 08:47:29;;;;;;;;;;;;;;;35.47;nan;100010.69;5013396;28;19929;-79
2021/07/18 08:49:57;;;;;;;;;;;;;;;34.25;nan;100016.06;5010017;28;19929;-77
2021/07/18 08:52:24;;;;;;;;;;;;;;;34.44;nan;100016.69;5013212;28;19926;-78
2021/07/18 08:54:53;;;;;;;;;;;;;;;34.73;nan;99997.97;5013822;28;19925;-78
2021/07/18 08:57:24;;;;;;;;;;;;;;;33.59;nan;100003.13;4995584;28;19925;-78
2021/07/18 08:59:51;;;;;;;;;;;;;;;32.87;nan;100014.03;5012744;28;19929;-79
2021/07/18 09:02:19;;;;;;;;;;;;;;;31.33;nan;100019.31;5013785;28;20034;-81
2021/07/18 09:04:46;;;;;;;;;;;;;;;31.64;nan;100007.09;5012454;28;19925;-81
2021/07/18 09:07:18;;;;;;;;;;;;;;;31.15;nan;100008.47;5012762;28;19929;-80
2021/07/18 09:09:46;;;;;;;;;;;;;;;31.35;nan;100005.13;5013025;28;19932;-81
2021/07/18 09:12:15;;;;;;;;;;;;;;;30.73;nan;100007.06;5015309;28;19931;-80
2021/07/18 09:14:46;;;;;;;;;;;;;;;30.45;nan;100020.19;4998151;28;19925;-80
2021/07/18 09:17:14;;;;;;;;;;;;;;;30.08;nan;100008.41;4998451;28;20499;-80
2021/07/18 09:19:43;;;;;;;;;;;;;;;30.37;nan;100011.34;5014068;28;19941;-79
2021/07/18 09:22:11;;;;;;;;;;;;;;;29.94;nan;100004.59;5014987;28;19932;-80
2021/07/18 09:24:47;;;;;;;;;;;;;;;29.44;nan;100010.63;4998695;28;19955;-81
2021/07/18 09:27:23;;;;;;;;;;;;;;;29.95;nan;100022.63;5016138;28;19935;-80
2021/07/18 09:29:54;;;;;;;;;;;;;;;29.29;nan;100007.25;5016210;28;19929;-80
2021/07/18 09:32:28;;;;;;;;;;;;;;;28.97;nan;100011.81;4998514;28;19925;-80
2021/07/18 09:34:56;;;;;;;;;;;;;;;29.23;nan;100006.50;4990650;28;19926;-80
2021/07/18 09:37:24;;;;;;;;;;;;;;;29.44;nan;100012.72;4998096;28;19930;-80
2021/07/18 09:39:56;;;;;;;;;;;;;;;29.76;nan;100017.53;5015804;28;20487;-80
2021/07/18 09:42:49;;;;;;;;;;;;;;;29.60;nan;100012.63;5011219;28;19929;-81
2021/07/18 09:45:20;;;;;;;;;;;;;;;29.22;nan;100004.16;4998851;28;19956;-80
2021/07/18 09:47:52;;;;;;;;;;;;;;;29.13;nan;100005.25;4998736;28;20387;-80
2021/07/18 09:50:20;;;;;;;;;;;;;;;28.42;nan;99999.59;5016012;28;20327;-77
2021/07/18 09:52:48;;;;;;;;;;;;;;;28.05;nan;100008.50;5015968;28;19925;-78
2021/07/18 09:55:23;;;;;;;;;;;;;;;28.42;nan;100009.00;4998126;28;20280;-78
2021/07/18 09:57:52;;;;;;;;;;;;;;;27.93;nan;100006.91;5015952;28;19932;-78
2021/07/18 10:00:20;;;;;;;;;;;;;;;28.14;nan;100006.13;5016113;28;19940;-78
2021/07/18 10:02:48;;;;;;;;;;;;;;;28.09;nan;100009.81;5002304;28;19984;-78
2021/07/18 10:05:24;;;;;;;;;;;;;;;28.08;nan;99996.72;5015983;28;19926;-79
2021/07/18 10:08:02;;;;;;;;;;;;;;;28.22;nan;100000.66;5001966;28;19980;-79
2021/07/18 10:10:32;;;;;;;;;;;;;;;27.82;nan;100006.84;4995543;28;20296;-79
2021/07/18 10:13:00;;;;;;;;;;;;;;;28.17;nan;100006.41;5015255;28;19929;-79
2021/07/18 10:15:28;;;;;;;;;;;;;;;28.42;nan;100016.84;4997868;28;19926;-78
2021/07/18 10:17:56;;;;;;;;;;;;;;;27.77;nan;100007.63;5014653;28;19932;-80
2021/07/18 10:20:26;;;;;;;;;;;;;;;27.79;nan;100007.91;5014143;28;19937;-78
2021/07/18 10:22:55;;;;;;;;;;;;;;;27.96;nan;100012.38;5014671;28;19981;-79
2021/07/18 10:25:24;;;;;;;;;;;;;;;27.91;nan;100004.56;4997496;28;19932;-79
2021/07/18 10:27:51;;;;;;;;;;;;;;;28.13;nan;100009.53;4996649;28;19930;-79
2021/07/18 10:30:19;;;;;;;;;;;;;;;27.44;nan;100013.28;5015496;28;19929;-78
2021/07/18 10:32:49;;;;;;;;;;;;;;;27.39;nan;100005.44;5015377;28;19926;-78
2021/07/18 10:35:18;;;;;;;;;;;;;;;27.31;nan;100004.38;4997907;28;19925;-80
2021/07/18 10:37:45;;;;;;;;;;;;;;;27.36;nan;100003.59;5014792;28;20363;-79
2021/07/18 10:40:14;;;;;;;;;;;;;;;27.23;nan;100000.38;5014559;28;20010;-78
2021/07/18 10:42:41;;;;;;;;;;;;;;;27.30;nan;99999.91;5014840;28;19925;-80
2021/07/18 10:45:15;;;;;;;;;;;;;;;27.49;nan;100003.91;4997477;28;19948;-79
2021/07/18 10:47:59;;;;;;;;;;;;;;;27.30;nan;99999.91;4996673;28;19925;-79
2021/07/18 10:50:44;;;;;;;;;;;;;;;27.36;nan;99997.84;4996805;28;19979;-79
2021/07/18 10:53:20;;;;;;;;;;;;;;;27.18;nan;99986.78;5013002;28;20396;-79
2021/07/18 10:55:48;;;;;;;;;;;;;;;27.67;nan;99983.34;4995273;28;19997;-79
2021/07/18 10:58:52;;;;;;;;;;;;;;;27.54;nan;99980.16;5013258;28;19929;-79
2021/07/18 11:01:19;;;;;;;;;;;;;;;27.63;nan;99977.03;4932976;29;19981;-79
2021/07/18 11:03:48;;;;;;;;;;;;;;;27.71;nan;99981.00;4933029;29;20283;-79
2021/07/18 11:06:26;;;;;;;;;;;;;;;27.61;nan;99965.31;4932441;29;20370;-79
2021/07/18 11:09:05;;;;;;;;;;;;;;;28.00;nan;99969.03;4918448;29;19931;-79
2021/07/18 11:11:36;;;;;;;;;;;;;;;28.08;nan;99975.84;4918328;29;20453;-79
2021/07/18 11:14:31;;;;;;;;;;;;;;;27.52;nan;99963.47;4933842;29;19927;-79
2021/07/18 11:16:59;;;;;;;;;;;;;;;27.47;nan;99960.59;4933924;29;20346;-79
2021/07/18 11:19:37;;;;;;;;;;;;;;;27.27;nan;99966.50;4933831;29;20394;-79
2021/07/18 11:22:12;;;;;;;;;;;;;;;27.39;nan;99962.38;4934188;29;19926;-79
2021/07/18 11:24:48;;;;;;;;;;;;;;;27.97;nan;99970.09;4926832;29;19999;-79
2021/07/18 11:27:28;;;;;;;;;;;;;;;27.51;nan;99963.97;4930869;29;19927;-79
2021/07/18 11:29:56;;;;;;;;;;;;;;;27.60;nan;99955.91;4903946;29;20070;-79
2021/07/18 11:32:25;;;;;;;;;;;;;;;27.58;nan;99958.50;4923902;29;19927;-79
2021/07/18 11:34:53;;;;;;;;;;;;;;;27.77;nan;99955.94;4947911;28;19931;-79
2021/07/18 11:37:22;;;;;;;;;;;;;;;27.48;nan;99948.59;5002829;28;19925;-80
2021/07/18 11:40:00;;;;;;;;;;;;;;;27.48;nan;99950.66;5015547;28;19978;-79
2021/07/18 11:42:27;;;;;;;;;;;;;;;27.69;nan;99952.00;5005139;28;19925;-79
2021/07/18 11:44:54;;;;;;;;;;;;;;;27.99;nan;99956.00;5007336;28;19931;-79
2021/07/18 11:47:23;;;;;;;;;;;;;;;28.23;nan;99950.50;5020848;28;20385;-79
2021/07/18 11:49:51;;;;;;;;;;;;;;;28.18;nan;99948.41;5011914;28;19971;-79
2021/07/18 11:52:19;;;;;;;;;;;;;;;27.95;nan;99946.84;4995155;28;19929;-79
2021/07/18 11:54:46;;;;;;;;;;;;;;;27.88;nan;99944.50;5012873;28;20292;-79
2021/07/18 11:57:15;;;;;;;;;;;;;;;27.87;nan;99945.78;4995710;28;19925;-79
2021/07/18 11:59:43;;;;;;;;;;;;;;;27.93;nan;99943.72;5012975;28;19926;-79
2021/07/18 12:02:12;;;;;;;;;;;;;;;27.52;nan;99942.59;5012863;28;19926;-79
2021/07/18 12:04:40;;;;;;;;;;;;;;;27.56;nan;99948.84;5013284;28;19979;-79
2021/07/18 12:07:09;;;;;;;;;;;;;;;27.87;nan;99940.03;5013098;28;19935;-79
2021/07/18 12:09:42;;;;;;;;;;;;;;;27.80;nan;99944.19;5013011;28;19936;-79
2021/07/18 12:12:11;;;;;;;;;;;;;;;27.96;nan;99931.19;4993003;28;19926;-79
2021/07/18 12:14:38;;;;;;;;;;;;;;;27.79;nan;99944.72;5011296;28;19925;-79
2021/07/18 12:17:08;;;;;;;;;;;;;;;28.03;nan;99931.44;4975560;28;19930;-79
2021/07/18 12:19:37;;;;;;;;;;;;;;;28.28;nan;99934.56;4991632;28;19930;-78
2021/07/18 12:22:09;;;;;;;;;;;;;;;28.44;nan;99928.00;4993763;28;19926;-80
2021/07/18 12:24:41;;;;;;;;;;;;;;;28.20;nan;99931.44;4992516;28;19926;-86
2021/07/18 12:27:15;;;;;;;;;;;;;;;28.24;nan;99942.66;4992677;28;19932;-79
2021/07/18 12:29:51;;;;;;;;;;;;;;;27.60;nan;99929.28;4986578;28;20361;-79
2021/07/18 12:32:19;;;;;;;;;;;;;;;27.32;nan;99934.19;4993991;28;19930;-81
2021/07/18 12:34:51;;;;;;;;;;;;;;;27.15;nan;99930.47;4993873;28;19932;-79
2021/07/18 12:37:19;;;;;;;;;;;;;;;27.08;nan;99942.44;4993925;28;19933;-79
2021/07/18 12:39:51;;;;;;;;;;;;;;;27.17;nan;99939.34;4993760;28;20370;-79
2021/07/18 12:42:21;;;;;;;;;;;;;;;27.67;nan;99934.53;4986171;28;19936;-79
2021/07/18 12:44:49;;;;;;;;;;;;;;;28.02;nan;99929.09;4992602;28;19926;-79
2021/07/18 12:47:16;;;;;;;;;;;;;;;28.22;nan;99920.19;4974750;28;19926;-77
2021/07/18 12:49:43;;;;;;;;;;;;;;;27.91;nan;99923.34;4992264;28;20016;-77
2021/07/18 12:52:10;;;;;;;;;;;;;;;28.10;nan;99925.19;4976510;28;20011;-77
2021/07/18 12:54:39;;;;;;;;;;;;;;;28.23;nan;99921.78;4992778;28;20328;-78
2021/07/18 12:57:06;;;;;;;;;;;;;;;28.25;nan;99919.13;4993643;28;20370;-78
2021/07/18 12:59:33;;;;;;;;;;;;;;;28.29;nan;99918.88;4993788;28;19925;-77
2021/07/18 13:02:13;;;;;;;;;;;;;;;28.01;nan;99913.16;4993431;28;20382;-76
2021/07/18 13:04:40;;;;;;;;;;;;;;;27.93;nan;99915.78;4991383;28;19934;-75
2021/07/18 13:07:11;;;;;;;;;;;;;;;27.64;nan;99915.47;4989383;28;19936;-76
2021/07/18 13:09:39;;;;;;;;;;;;;;;27.66;nan;99907.91;4989656;28;19972;-75